createdAt,value
2022-08-26T00:04:42.023Z,17.13
2022-08-26T00:09:47.404Z,17.02
2022-08-26T00:14:52.509Z,19.83
2022-08-26T00:19:55.842Z,18.25
2022-08-26T00:24:59.206Z,16.13
2022-08-26T00:30:05.513Z,21.05
2022-08-26T00:35:10.546Z,20.63
2022-08-26T00:40:17.409Z,18.38
2022-08-26T00:45:22.784Z,20.50
2022-08-26T00:50:30.742Z,19.50
2022-08-26T00:55:40.841Z,20.70
2022-08-26T01:00:46.050Z,20.57
2022-08-26T01:05:50.057Z,22.88
2022-08-26T01:10:56.451Z,20.35
2022-08-26T01:16:05.506Z,18.17
2022-08-26T01:21:19.116Z,24.37
2022-08-26T01:26:29.090Z,20.58
2022-08-26T01:31:37.625Z,21.65
2022-08-26T01:36:44.506Z,20.10
2022-08-26T01:41:55.166Z,18.83
2022-08-26T01:47:00.554Z,21.58
2022-08-26T01:52:07.721Z,21.73
2022-08-26T01:57:17.510Z,21.60
2022-08-26T02:02:20.938Z,22.10
2022-08-26T02:07:26.835Z,20.10
2022-08-26T02:12:32.546Z,17.38
2022-08-26T02:17:40.757Z,18.40
2022-08-26T02:22:46.189Z,20.50
2022-08-26T02:27:51.259Z,19.80
2022-08-26T02:32:54.968Z,18.75
2022-08-26T02:38:00.478Z,20.40
2022-08-26T02:43:05.506Z,18.90
2022-08-26T02:48:14.723Z,20.02
2022-08-26T02:53:23.190Z,20.07
2022-08-26T02:58:29.974Z,20.37
2022-08-26T03:03:33.838Z,23.40
2022-08-26T03:08:37.177Z,22.85
2022-08-26T03:13:42.300Z,20.58
2022-08-26T03:18:52.012Z,24.43
2022-08-26T03:23:58.693Z,23.33
2022-08-26T03:29:23.202Z,22.60
2022-08-26T03:34:26.531Z,21.23
2022-08-26T03:39:31.734Z,19.70
2022-08-26T03:44:41.953Z,20.87
2022-08-26T03:49:45.782Z,21.03
2022-08-26T03:54:49.305Z,19.33
2022-08-26T03:59:54.087Z,20.53
2022-08-26T04:04:57.682Z,21.02
2022-08-26T04:10:01.165Z,19.98
2022-08-26T04:15:07.548Z,22.25
2022-08-26T04:20:14.043Z,22.50
2022-08-26T04:25:20.505Z,21.27
2022-08-26T04:30:25.508Z,21.52
2022-08-26T04:35:28.987Z,19.70
2022-08-26T04:40:33.111Z,21.23
2022-08-26T04:45:39.496Z,17.83
2022-08-26T04:50:43.208Z,19.90
2022-08-26T04:55:46.634Z,19.03
2022-08-26T05:00:55.334Z,19.60
2022-08-26T05:05:59.690Z,18.48
2022-08-26T05:11:06.938Z,21.85
2022-08-26T05:16:16.980Z,22.08
2022-08-26T05:21:23.215Z,20.67
2022-08-26T05:26:28.436Z,21.57
2022-08-26T05:31:34.419Z,19.50
2022-08-26T05:36:38.552Z,21.10
2022-08-26T05:41:44.752Z,19.27
2022-08-26T05:46:49.742Z,21.25
2022-08-26T05:51:54.599Z,22.20
2022-08-26T05:56:58.054Z,19.60
2022-08-26T06:02:03.704Z,17.77
2022-08-26T06:07:07.430Z,17.42
2022-08-26T06:12:15.844Z,16.50
2022-08-26T06:17:23.243Z,18.60
2022-08-26T06:22:44.526Z,18.23
2022-08-26T06:27:48.956Z,16.47
2022-08-26T06:32:53.889Z,14.13
2022-08-26T06:37:58.172Z,17.33
2022-08-26T06:43:01.702Z,14.93
2022-08-26T06:48:07.770Z,15.63
2022-08-26T06:53:14.623Z,16.27
2022-08-26T06:58:19.121Z,14.93
2022-08-26T07:03:24.465Z,12.88
2022-08-26T07:08:27.817Z,17.27
2022-08-26T07:13:31.131Z,14.80
2022-08-26T07:18:37.659Z,18.03
2022-08-26T07:23:43.035Z,18.52
2022-08-26T07:28:48.794Z,15.93
2022-08-26T07:33:53.933Z,13.63
2022-08-26T07:38:57.616Z,14.98
2022-08-26T07:44:01.863Z,14.03
2022-08-26T07:49:09.250Z,15.32
2022-08-26T07:54:12.948Z,16.38
2022-08-26T07:59:17.684Z,17.23
2022-08-26T08:04:26.659Z,14.80
2022-08-26T08:09:31.037Z,16.25
2022-08-26T08:14:34.703Z,17.10
2022-08-26T08:19:39.429Z,16.77
2022-08-26T08:24:42.859Z,16.15
2022-08-26T08:29:47.509Z,17.00
2022-08-26T08:34:53.063Z,14.18
2022-08-26T08:39:56.769Z,19.27
2022-08-26T08:45:04.879Z,15.00
2022-08-26T08:50:20.178Z,15.77
2022-08-26T08:55:28.480Z,16.30
2022-08-26T09:00:39.966Z,15.05
2022-08-26T09:05:48.898Z,12.50
2022-08-26T09:10:56.136Z,11.90
2022-08-26T09:16:07.576Z,13.40
2022-08-26T09:21:15.059Z,10.23
2022-08-26T09:26:23.534Z,13.15
2022-08-26T09:31:33.581Z,12.38
2022-08-26T09:36:41.185Z,9.07
2022-08-26T09:41:44.832Z,12.65
2022-08-26T09:46:56.370Z,11.20
2022-08-26T09:52:18.870Z,9.27
2022-08-26T09:57:28.100Z,12.90
2022-08-26T10:02:47.476Z,11.13
2022-08-26T10:07:53.450Z,13.40
2022-08-26T10:13:04.246Z,11.48
2022-08-26T10:18:13.958Z,10.65
2022-08-26T10:23:23.389Z,9.50
2022-08-26T10:28:34.310Z,11.70
2022-08-26T10:33:39.656Z,9.23
2022-08-26T10:38:44.479Z,13.50
2022-08-26T10:43:53.589Z,11.43
2022-08-26T10:49:01.635Z,8.95
2022-08-26T10:54:12.533Z,13.05
2022-08-26T10:59:25.224Z,13.20
2022-08-26T11:04:48.434Z,11.20
2022-08-26T11:09:53.441Z,11.80
2022-08-26T11:14:58.695Z,9.85
2022-08-26T11:20:09.166Z,11.18
2022-08-26T11:25:19.380Z,13.90
2022-08-26T11:30:47.722Z,12.87
2022-08-26T11:36:00.763Z,10.82
2022-08-26T11:41:24.477Z,10.88
2022-08-26T11:46:30.506Z,12.27
2022-08-26T11:51:40.094Z,12.93
2022-08-26T11:56:48.018Z,15.17
2022-08-26T12:01:54.391Z,12.80
2022-08-26T12:07:00.740Z,6.87
2022-08-26T12:12:16.677Z,7.45
2022-08-26T12:17:28.786Z,17.33
2022-08-26T12:22:36.605Z,18.88
2022-08-26T12:27:43.853Z,17.73
2022-08-26T12:32:58.020Z,10.02
2022-08-26T12:38:05.175Z,13.27
2022-08-26T12:43:11.253Z,13.00
2022-08-26T12:48:24.510Z,13.38
2022-08-26T12:53:30.404Z,15.00
2022-08-26T12:58:36.903Z,13.73
2022-08-26T13:03:46.834Z,17.10
2022-08-26T13:08:51.551Z,17.00
2022-08-26T13:13:58.870Z,12.73
2022-08-26T13:19:05.789Z,16.02
2022-08-26T13:24:16.196Z,16.42
2022-08-26T14:04:46.372Z,16.40
2022-08-26T14:50:26.288Z,10.20
2022-08-26T14:55:32.019Z,9.02
2022-08-26T15:00:37.065Z,6.78
2022-08-26T15:05:48.148Z,8.40
2022-08-26T15:10:51.679Z,7.07
2022-08-26T15:15:56.638Z,4.22
2022-08-26T15:21:00.004Z,7.32
2022-08-26T15:26:03.526Z,5.57
2022-08-26T15:31:08.703Z,6.33
2022-08-26T15:36:12.410Z,7.70
2022-08-26T15:41:15.720Z,4.88
2022-08-26T15:46:20.951Z,5.30
2022-08-26T15:51:28.053Z,5.20
2022-08-26T15:56:33.697Z,4.03
2022-08-26T16:01:39.503Z,5.78
2022-08-26T16:06:43.878Z,4.37
2022-08-26T16:11:47.174Z,6.38
2022-08-26T16:16:52.034Z,8.80
2022-08-26T16:21:55.386Z,4.23
2022-08-26T16:26:58.717Z,6.80
2022-08-26T16:32:08.849Z,6.40
2022-08-26T16:37:12.348Z,7.45
2022-08-26T16:42:15.905Z,5.88
2022-08-26T16:47:21.603Z,7.68
2022-08-26T16:52:25.673Z,5.70
2022-08-26T16:57:34.670Z,8.52
2022-08-26T17:02:39.664Z,8.32
2022-08-26T17:07:43.122Z,7.68
2022-08-26T17:12:47.050Z,9.10
2022-08-26T17:17:52.150Z,8.37
2022-08-26T17:22:57.059Z,7.15
2022-08-26T17:28:00.986Z,6.13
2022-08-26T17:33:11.030Z,8.60
2022-08-26T17:38:14.536Z,7.82
2022-08-26T17:43:18.076Z,6.95
2022-08-26T17:48:22.821Z,9.00
2022-08-26T17:53:27.309Z,9.05
2022-08-26T17:58:30.588Z,9.35
2022-08-26T18:03:39.359Z,10.32
2022-08-26T18:08:44.088Z,12.20
2022-08-26T18:13:48.005Z,8.60
2022-08-26T18:18:53.547Z,10.80
2022-08-26T18:23:57.339Z,11.60
2022-08-26T18:29:00.948Z,12.65
2022-08-26T18:34:07.139Z,16.60
2022-08-26T18:39:11.587Z,17.00
2022-08-26T18:44:16.946Z,13.67
2022-08-26T18:49:23.147Z,17.80
2022-08-26T18:54:26.632Z,17.98
2022-08-26T18:59:30.648Z,15.93
2022-08-26T19:04:37.448Z,15.53
2022-08-26T19:09:41.576Z,15.13
2022-08-26T21:37:20.741Z,13.07
2022-08-26T22:43:12.198Z,19.50
2022-08-26T22:48:17.867Z,23.70
2022-08-26T23:23:50.473Z,10.48
2022-08-26T23:28:54.443Z,9.15
2022-08-26T23:34:15.485Z,7.60
2022-08-26T23:39:22.155Z,6.90
2022-08-26T23:44:26.569Z,8.25
2022-08-26T23:49:30.485Z,10.75
2022-08-26T23:54:35.318Z,7.18
2022-08-26T23:59:39.560Z,8.90
